sensor_id;sensor_type;location;lat;lon;timestamp;P1;durP1;ratioP1;P2;durP2;ratioP2
67904;SDS011;54709;43.614;1.576;2024-03-23T00:53:58;11.20;;;7.10;;
67904;SDS011;54709;43.614;1.576;2024-03-23T00:56:23;13.38;;;6.95;;
67904;SDS011;54709;43.614;1.576;2024-03-23T00:58:49;12.30;;;7.32;;
67904;SDS011;54709;43.614;1.576;2024-03-23T01:01:15;11.32;;;6.40;;
67904;SDS011;54709;43.614;1.576;2024-03-23T01:03:40;12.52;;;6.82;;
67904;SDS011;54709;43.614;1.576;2024-03-23T01:06:06;10.13;;;6.22;;
67904;SDS011;54709;43.614;1.576;2024-03-23T01:08:31;12.25;;;6.63;;
67904;SDS011;54709;43.614;1.576;2024-03-23T01:10:57;16.17;;;6.78;;
67904;SDS011;54709;43.614;1.576;2024-03-23T01:13:23;12.68;;;6.57;;
67904;SDS011;54709;43.614;1.576;2024-03-23T01:15:52;11.73;;;6.70;;
67904;SDS011;54709;43.614;1.576;2024-03-23T01:18:18;8.55;;;5.97;;
67904;SDS011;54709;43.614;1.576;2024-03-23T01:20:44;12.05;;;7.53;;
67904;SDS011;54709;43.614;1.576;2024-03-23T01:23:10;9.35;;;6.60;;
67904;SDS011;54709;43.614;1.576;2024-03-23T01:25:36;10.65;;;6.65;;
67904;SDS011;54709;43.614;1.576;2024-03-23T01:28:01;13.70;;;6.82;;
67904;SDS011;54709;43.614;1.576;2024-03-23T01:30:26;9.20;;;6.68;;
67904;SDS011;54709;43.614;1.576;2024-03-23T01:32:52;10.02;;;6.50;;
67904;SDS011;54709;43.614;1.576;2024-03-23T01:35:17;13.88;;;7.57;;
67904;SDS011;54709;43.614;1.576;2024-03-23T01:37:43;11.45;;;6.72;;
67904;SDS011;54709;43.614;1.576;2024-03-23T01:40:08;10.95;;;7.18;;
67904;SDS011;54709;43.614;1.576;2024-03-23T01:42:34;10.57;;;7.35;;
67904;SDS011;54709;43.614;1.576;2024-03-23T01:44:59;14.85;;;6.80;;
67904;SDS011;54709;43.614;1.576;2024-03-23T01:47:25;12.63;;;7.38;;
67904;SDS011;54709;43.614;1.576;2024-03-23T01:49:50;12.73;;;7.20;;
67904;SDS011;54709;43.614;1.576;2024-03-23T01:52:16;14.32;;;7.25;;
67904;SDS011;54709;43.614;1.576;2024-03-23T01:54:42;12.35;;;7.13;;
67904;SDS011;54709;43.614;1.576;2024-03-23T01:57:07;11.95;;;7.25;;
67904;SDS011;54709;43.614;1.576;2024-03-23T01:59:33;10.48;;;7.20;;
67904;SDS011;54709;43.614;1.576;2024-03-23T02:01:58;12.82;;;6.80;;
67904;SDS011;54709;43.614;1.576;2024-03-23T02:04:24;11.07;;;7.07;;
67904;SDS011;54709;43.614;1.576;2024-03-23T02:06:49;14.75;;;6.47;;
67904;SDS011;54709;43.614;1.576;2024-03-23T02:09:14;11.38;;;7.10;;
67904;SDS011;54709;43.614;1.576;2024-03-23T02:11:40;12.10;;;6.90;;
67904;SDS011;54709;43.614;1.576;2024-03-23T02:14:05;13.13;;;7.03;;
67904;SDS011;54709;43.614;1.576;2024-03-23T02:16:32;10.60;;;6.07;;
67904;SDS011;54709;43.614;1.576;2024-03-23T02:18:58;10.60;;;6.85;;
67904;SDS011;54709;43.614;1.576;2024-03-23T02:21:23;12.43;;;6.57;;
67904;SDS011;54709;43.614;1.576;2024-03-23T02:23:49;8.57;;;5.75;;
67904;SDS011;54709;43.614;1.576;2024-03-23T02:26:14;9.68;;;5.85;;
67904;SDS011;54709;43.614;1.576;2024-03-23T02:28:40;10.43;;;5.43;;
67904;SDS011;54709;43.614;1.576;2024-03-23T02:31:05;9.30;;;5.43;;
67904;SDS011;54709;43.614;1.576;2024-03-23T02:33:31;10.77;;;5.25;;
67904;SDS011;54709;43.614;1.576;2024-03-23T02:35:57;10.57;;;5.13;;
67904;SDS011;54709;43.614;1.576;2024-03-23T02:38:23;8.45;;;5.07;;
67904;SDS011;54709;43.614;1.576;2024-03-23T02:40:49;7.53;;;5.22;;
67904;SDS011;54709;43.614;1.576;2024-03-23T02:43:14;10.25;;;4.80;;
67904;SDS011;54709;43.614;1.576;2024-03-23T02:45:39;7.85;;;4.68;;
67904;SDS011;54709;43.614;1.576;2024-03-23T02:48:05;6.22;;;4.13;;
67904;SDS011;54709;43.614;1.576;2024-03-23T02:50:30;7.47;;;4.30;;
67904;SDS011;54709;43.614;1.576;2024-03-23T02:52:56;6.95;;;4.53;;
67904;SDS011;54709;43.614;1.576;2024-03-23T02:55:21;8.88;;;4.45;;
67904;SDS011;54709;43.614;1.576;2024-03-23T02:57:47;7.03;;;4.50;;
67904;SDS011;54709;43.614;1.576;2024-03-23T03:00:12;6.82;;;4.07;;
67904;SDS011;54709;43.614;1.576;2024-03-23T03:02:38;6.63;;;4.55;;
67904;SDS011;54709;43.614;1.576;2024-03-23T03:05:04;7.32;;;4.38;;
67904;SDS011;54709;43.614;1.576;2024-03-23T03:07:30;6.65;;;3.92;;
67904;SDS011;54709;43.614;1.576;2024-03-23T03:09:56;7.78;;;4.25;;
67904;SDS011;54709;43.614;1.576;2024-03-23T03:12:21;6.10;;;3.83;;
67904;SDS011;54709;43.614;1.576;2024-03-23T03:14:47;5.95;;;3.33;;
67904;SDS011;54709;43.614;1.576;2024-03-23T03:17:13;8.82;;;3.92;;
67904;SDS011;54709;43.614;1.576;2024-03-23T03:19:39;7.35;;;3.95;;
67904;SDS011;54709;43.614;1.576;2024-03-23T03:22:05;7.47;;;3.60;;
67904;SDS011;54709;43.614;1.576;2024-03-23T03:24:30;7.30;;;3.70;;
67904;SDS011;54709;43.614;1.576;2024-03-23T03:26:56;6.85;;;3.25;;
67904;SDS011;54709;43.614;1.576;2024-03-23T03:29:22;6.47;;;3.08;;
67904;SDS011;54709;43.614;1.576;2024-03-23T03:31:47;4.70;;;3.05;;
67904;SDS011;54709;43.614;1.576;2024-03-23T03:34:15;5.70;;;3.00;;
67904;SDS011;54709;43.614;1.576;2024-03-23T03:36:40;5.85;;;2.97;;
67904;SDS011;54709;43.614;1.576;2024-03-23T03:39:06;6.82;;;3.17;;
67904;SDS011;54709;43.614;1.576;2024-03-23T03:41:32;8.02;;;2.88;;
67904;SDS011;54709;43.614;1.576;2024-03-23T03:43:57;6.97;;;3.10;;
67904;SDS011;54709;43.614;1.576;2024-03-23T03:46:27;5.28;;;2.60;;
67904;SDS011;54709;43.614;1.576;2024-03-23T03:48:53;5.78;;;2.97;;
67904;SDS011;54709;43.614;1.576;2024-03-23T03:51:19;5.97;;;3.10;;
67904;SDS011;54709;43.614;1.576;2024-03-23T03:53:45;4.25;;;2.55;;
67904;SDS011;54709;43.614;1.576;2024-03-23T03:56:10;6.57;;;2.50;;
67904;SDS011;54709;43.614;1.576;2024-03-23T03:58:35;8.18;;;3.15;;
67904;SDS011;54709;43.614;1.576;2024-03-23T04:01:01;9.38;;;2.78;;
67904;SDS011;54709;43.614;1.576;2024-03-23T04:03:26;8.18;;;3.08;;
67904;SDS011;54709;43.614;1.576;2024-03-23T04:05:52;7.25;;;2.72;;
67904;SDS011;54709;43.614;1.576;2024-03-23T04:08:18;8.40;;;2.97;;
67904;SDS011;54709;43.614;1.576;2024-03-23T04:10:44;8.50;;;2.70;;
67904;SDS011;54709;43.614;1.576;2024-03-23T04:13:10;8.32;;;2.70;;
67904;SDS011;54709;43.614;1.576;2024-03-23T04:15:36;7.47;;;2.63;;
67904;SDS011;54709;43.614;1.576;2024-03-23T04:18:02;8.77;;;2.80;;
67904;SDS011;54709;43.614;1.576;2024-03-23T04:20:27;10.63;;;2.83;;
67904;SDS011;54709;43.614;1.576;2024-03-23T04:22:52;6.00;;;2.55;;
67904;SDS011;54709;43.614;1.576;2024-03-23T04:25:18;10.38;;;2.53;;
67904;SDS011;54709;43.614;1.576;2024-03-23T04:27:44;7.38;;;2.40;;
67904;SDS011;54709;43.614;1.576;2024-03-23T04:30:10;5.45;;;2.70;;
67904;SDS011;54709;43.614;1.576;2024-03-23T04:32:39;8.13;;;2.33;;
67904;SDS011;54709;43.614;1.576;2024-03-23T04:35:05;8.40;;;2.20;;
67904;SDS011;54709;43.614;1.576;2024-03-23T04:37:31;5.47;;;2.40;;
67904;SDS011;54709;43.614;1.576;2024-03-23T04:39:59;9.68;;;2.53;;
67904;SDS011;54709;43.614;1.576;2024-03-23T04:42:26;7.38;;;2.63;;
67904;SDS011;54709;43.614;1.576;2024-03-23T04:44:52;6.90;;;2.15;;
67904;SDS011;54709;43.614;1.576;2024-03-23T04:47:18;7.15;;;2.38;;
67904;SDS011;54709;43.614;1.576;2024-03-23T04:49:43;7.03;;;2.00;;
67904;SDS011;54709;43.614;1.576;2024-03-23T04:52:09;7.13;;;2.25;;
67904;SDS011;54709;43.614;1.576;2024-03-23T04:54:34;7.13;;;2.50;;
67904;SDS011;54709;43.614;1.576;2024-03-23T04:56:59;8.73;;;2.50;;
67904;SDS011;54709;43.614;1.576;2024-03-23T04:59:25;5.35;;;2.10;;
67904;SDS011;54709;43.614;1.576;2024-03-23T05:01:50;7.63;;;2.42;;
67904;SDS011;54709;43.614;1.576;2024-03-23T05:04:16;8.65;;;2.28;;
67904;SDS011;54709;43.614;1.576;2024-03-23T05:06:41;6.20;;;1.98;;
67904;SDS011;54709;43.614;1.576;2024-03-23T05:09:06;6.00;;;2.10;;
67904;SDS011;54709;43.614;1.576;2024-03-23T05:11:33;10.15;;;2.10;;
67904;SDS011;54709;43.614;1.576;2024-03-23T05:13:59;6.43;;;2.53;;
67904;SDS011;54709;43.614;1.576;2024-03-23T05:16:25;5.47;;;2.10;;
67904;SDS011;54709;43.614;1.576;2024-03-23T05:18:51;5.53;;;2.10;;
67904;SDS011;54709;43.614;1.576;2024-03-23T05:21:16;8.15;;;2.38;;
67904;SDS011;54709;43.614;1.576;2024-03-23T05:23:42;8.93;;;2.33;;
67904;SDS011;54709;43.614;1.576;2024-03-23T05:26:08;6.90;;;2.22;;
67904;SDS011;54709;43.614;1.576;2024-03-23T05:28:34;5.35;;;2.03;;
67904;SDS011;54709;43.614;1.576;2024-03-23T05:30:59;8.25;;;2.40;;
67904;SDS011;54709;43.614;1.576;2024-03-23T05:33:25;5.03;;;2.15;;
67904;SDS011;54709;43.614;1.576;2024-03-23T05:35:57;5.40;;;2.30;;
67904;SDS011;54709;43.614;1.576;2024-03-23T05:38:23;5.95;;;2.03;;
67904;SDS011;54709;43.614;1.576;2024-03-23T05:40:58;4.10;;;2.00;;
67904;SDS011;54709;43.614;1.576;2024-03-23T05:43:25;6.30;;;2.40;;
67904;SDS011;54709;43.614;1.576;2024-03-23T05:45:54;4.57;;;1.83;;
67904;SDS011;54709;43.614;1.576;2024-03-23T05:48:20;5.20;;;2.08;;
67904;SDS011;54709;43.614;1.576;2024-03-23T05:50:45;4.57;;;1.63;;
67904;SDS011;54709;43.614;1.576;2024-03-23T05:53:11;5.70;;;2.47;;
67904;SDS011;54709;43.614;1.576;2024-03-23T05:55:38;5.82;;;2.22;;
67904;SDS011;54709;43.614;1.576;2024-03-23T05:58:03;4.97;;;2.17;;
67904;SDS011;54709;43.614;1.576;2024-03-23T06:00:29;8.50;;;2.30;;
67904;SDS011;54709;43.614;1.576;2024-03-23T06:02:54;7.53;;;2.53;;
67904;SDS011;54709;43.614;1.576;2024-03-23T06:05:20;8.45;;;2.38;;
67904;SDS011;54709;43.614;1.576;2024-03-23T06:07:45;7.30;;;2.40;;
67904;SDS011;54709;43.614;1.576;2024-03-23T06:10:11;7.22;;;2.33;;
67904;SDS011;54709;43.614;1.576;2024-03-23T06:12:36;7.07;;;2.30;;
67904;SDS011;54709;43.614;1.576;2024-03-23T06:15:02;6.95;;;2.30;;
67904;SDS011;54709;43.614;1.576;2024-03-23T06:17:28;7.97;;;2.50;;
67904;SDS011;54709;43.614;1.576;2024-03-23T06:19:53;8.63;;;2.67;;
67904;SDS011;54709;43.614;1.576;2024-03-23T06:22:18;8.60;;;2.15;;
67904;SDS011;54709;43.614;1.576;2024-03-23T06:24:44;4.45;;;2.08;;
67904;SDS011;54709;43.614;1.576;2024-03-23T06:27:09;6.47;;;2.42;;
67904;SDS011;54709;43.614;1.576;2024-03-23T06:29:35;8.50;;;2.05;;
67904;SDS011;54709;43.614;1.576;2024-03-23T06:32:01;5.13;;;1.95;;
67904;SDS011;54709;43.614;1.576;2024-03-23T06:34:27;4.68;;;1.85;;
67904;SDS011;54709;43.614;1.576;2024-03-23T06:36:52;5.43;;;2.17;;
67904;SDS011;54709;43.614;1.576;2024-03-23T06:39:18;6.63;;;2.05;;
67904;SDS011;54709;43.614;1.576;2024-03-23T06:41:50;5.05;;;2.15;;
67904;SDS011;54709;43.614;1.576;2024-03-23T06:44:17;6.22;;;2.33;;
67904;SDS011;54709;43.614;1.576;2024-03-23T06:46:42;4.35;;;2.10;;
67904;SDS011;54709;43.614;1.576;2024-03-23T06:49:08;6.43;;;2.70;;
67904;SDS011;54709;43.614;1.576;2024-03-23T06:51:33;7.60;;;2.33;;
67904;SDS011;54709;43.614;1.576;2024-03-23T06:53:58;9.65;;;2.42;;
67904;SDS011;54709;43.614;1.576;2024-03-23T06:56:24;6.38;;;2.50;;
67904;SDS011;54709;43.614;1.576;2024-03-23T06:58:50;5.60;;;2.53;;
67904;SDS011;54709;43.614;1.576;2024-03-23T07:01:16;5.40;;;2.47;;
67904;SDS011;54709;43.614;1.576;2024-03-23T07:03:41;5.05;;;2.55;;
67904;SDS011;54709;43.614;1.576;2024-03-23T07:06:08;7.90;;;2.90;;
67904;SDS011;54709;43.614;1.576;2024-03-23T07:08:35;5.78;;;2.70;;
67904;SDS011;54709;43.614;1.576;2024-03-23T07:11:00;7.68;;;2.80;;
67904;SDS011;54709;43.614;1.576;2024-03-23T07:13:26;3.80;;;2.72;;
67904;SDS011;54709;43.614;1.576;2024-03-23T07:15:51;8.07;;;2.70;;
67904;SDS011;54709;43.614;1.576;2024-03-23T07:18:17;7.30;;;3.33;;
67904;SDS011;54709;43.614;1.576;2024-03-23T07:20:51;8.95;;;3.75;;
67904;SDS011;54709;43.614;1.576;2024-03-23T07:23:20;10.27;;;3.88;;
67904;SDS011;54709;43.614;1.576;2024-03-23T07:25:45;7.53;;;3.30;;
67904;SDS011;54709;43.614;1.576;2024-03-23T07:28:15;4.78;;;3.00;;
67904;SDS011;54709;43.614;1.576;2024-03-23T07:30:40;7.53;;;3.35;;
67904;SDS011;54709;43.614;1.576;2024-03-23T07:33:06;7.70;;;3.30;;
67904;SDS011;54709;43.614;1.576;2024-03-23T07:35:31;8.68;;;2.97;;
67904;SDS011;54709;43.614;1.576;2024-03-23T07:37:56;8.07;;;2.63;;
67904;SDS011;54709;43.614;1.576;2024-03-23T07:40:22;5.25;;;2.35;;
67904;SDS011;54709;43.614;1.576;2024-03-23T07:42:47;2.63;;;1.50;;
67904;SDS011;54709;43.614;1.576;2024-03-23T07:45:13;0.88;;;0.70;;
67904;SDS011;54709;43.614;1.576;2024-03-23T07:47:38;1.95;;;0.52;;
67904;SDS011;54709;43.614;1.576;2024-03-23T07:50:04;1.10;;;0.57;;
67904;SDS011;54709;43.614;1.576;2024-03-23T07:52:29;1.17;;;0.50;;
67904;SDS011;54709;43.614;1.576;2024-03-23T07:54:55;0.57;;;0.40;;
67904;SDS011;54709;43.614;1.576;2024-03-23T07:57:20;0.93;;;0.52;;
67904;SDS011;54709;43.614;1.576;2024-03-23T07:59:46;2.13;;;0.50;;
67904;SDS011;54709;43.614;1.576;2024-03-23T08:02:11;0.55;;;0.40;;
67904;SDS011;54709;43.614;1.576;2024-03-23T08:04:37;1.17;;;0.50;;
67904;SDS011;54709;43.614;1.576;2024-03-23T08:07:02;2.65;;;0.70;;
67904;SDS011;54709;43.614;1.576;2024-03-23T08:09:28;2.50;;;0.55;;
67904;SDS011;54709;43.614;1.576;2024-03-23T08:11:53;4.55;;;0.80;;
67904;SDS011;54709;43.614;1.576;2024-03-23T08:14:18;1.42;;;0.60;;
67904;SDS011;54709;43.614;1.576;2024-03-23T08:16:44;1.38;;;0.60;;
67904;SDS011;54709;43.614;1.576;2024-03-23T08:19:13;7.90;;;1.23;;
67904;SDS011;54709;43.614;1.576;2024-03-23T08:21:39;4.70;;;1.00;;
67904;SDS011;54709;43.614;1.576;2024-03-23T08:24:05;3.50;;;1.10;;
67904;SDS011;54709;43.614;1.576;2024-03-23T08:26:30;8.32;;;1.17;;
67904;SDS011;54709;43.614;1.576;2024-03-23T08:28:56;5.35;;;1.25;;
67904;SDS011;54709;43.614;1.576;2024-03-23T08:31:22;5.68;;;1.10;;
67904;SDS011;54709;43.614;1.576;2024-03-23T08:33:47;5.97;;;1.48;;
67904;SDS011;54709;43.614;1.576;2024-03-23T08:36:13;5.10;;;1.52;;
67904;SDS011;54709;43.614;1.576;2024-03-23T08:38:39;9.68;;;2.08;;
67904;SDS011;54709;43.614;1.576;2024-03-23T08:41:08;8.05;;;1.63;;
67904;SDS011;54709;43.614;1.576;2024-03-23T08:43:38;7.85;;;1.40;;
67904;SDS011;54709;43.614;1.576;2024-03-23T08:46:08;7.13;;;1.50;;
67904;SDS011;54709;43.614;1.576;2024-03-23T08:48:34;8.02;;;1.50;;
67904;SDS011;54709;43.614;1.576;2024-03-23T08:51:08;13.32;;;4.68;;
67904;SDS011;54709;43.614;1.576;2024-03-23T08:53:34;41.63;;;23.25;;
67904;SDS011;54709;43.614;1.576;2024-03-23T08:56:00;29.55;;;18.17;;
67904;SDS011;54709;43.614;1.576;2024-03-23T08:58:26;43.45;;;25.70;;
67904;SDS011;54709;43.614;1.576;2024-03-23T09:00:52;33.83;;;21.25;;
67904;SDS011;54709;43.614;1.576;2024-03-23T09:03:21;9.77;;;2.00;;
67904;SDS011;54709;43.614;1.576;2024-03-23T09:05:56;10.95;;;2.47;;
67904;SDS011;54709;43.614;1.576;2024-03-23T09:08:23;9.48;;;2.80;;
67904;SDS011;54709;43.614;1.576;2024-03-23T09:10:48;9.63;;;2.30;;
67904;SDS011;54709;43.614;1.576;2024-03-23T09:13:14;7.13;;;2.05;;
67904;SDS011;54709;43.614;1.576;2024-03-23T09:15:46;9.70;;;2.15;;
67904;SDS011;54709;43.614;1.576;2024-03-23T09:18:13;8.38;;;2.15;;
67904;SDS011;54709;43.614;1.576;2024-03-23T09:20:38;9.98;;;2.42;;
67904;SDS011;54709;43.614;1.576;2024-03-23T09:23:04;11.10;;;2.70;;
67904;SDS011;54709;43.614;1.576;2024-03-23T09:25:29;8.15;;;2.25;;
67904;SDS011;54709;43.614;1.576;2024-03-23T09:27:55;8.65;;;2.22;;
67904;SDS011;54709;43.614;1.576;2024-03-23T09:30:20;8.93;;;2.70;;
67904;SDS011;54709;43.614;1.576;2024-03-23T09:32:46;7.13;;;2.25;;
67904;SDS011;54709;43.614;1.576;2024-03-23T09:35:11;6.03;;;1.63;;
67904;SDS011;54709;43.614;1.576;2024-03-23T09:37:38;8.60;;;2.40;;
67904;SDS011;54709;43.614;1.576;2024-03-23T09:40:05;11.60;;;2.20;;
67904;SDS011;54709;43.614;1.576;2024-03-23T09:42:33;12.38;;;2.20;;
67904;SDS011;54709;43.614;1.576;2024-03-23T09:44:59;9.75;;;2.30;;
67904;SDS011;54709;43.614;1.576;2024-03-23T09:47:25;5.35;;;1.92;;
67904;SDS011;54709;43.614;1.576;2024-03-23T09:49:51;7.97;;;2.00;;
67904;SDS011;54709;43.614;1.576;2024-03-23T09:52:17;5.47;;;1.80;;
67904;SDS011;54709;43.614;1.576;2024-03-23T09:54:42;7.97;;;2.13;;
67904;SDS011;54709;43.614;1.576;2024-03-23T09:57:07;7.72;;;1.90;;
67904;SDS011;54709;43.614;1.576;2024-03-23T09:59:33;7.88;;;2.20;;
67904;SDS011;54709;43.614;1.576;2024-03-23T10:01:59;6.35;;;2.10;;
67904;SDS011;54709;43.614;1.576;2024-03-23T10:04:37;7.22;;;2.33;;
67904;SDS011;54709;43.614;1.576;2024-03-23T10:07:39;5.45;;;1.83;;
67904;SDS011;54709;43.614;1.576;2024-03-23T10:09:58;7.15;;;1.90;;
67904;SDS011;54709;43.614;1.576;2024-03-23T10:12:24;9.45;;;2.22;;
67904;SDS011;54709;43.614;1.576;2024-03-23T10:14:49;7.07;;;2.25;;
67904;SDS011;54709;43.614;1.576;2024-03-23T10:17:19;7.93;;;3.50;;
67904;SDS011;54709;43.614;1.576;2024-03-23T10:19:45;15.50;;;6.20;;
67904;SDS011;54709;43.614;1.576;2024-03-23T10:22:17;16.15;;;6.13;;
67904;SDS011;54709;43.614;1.576;2024-03-23T10:24:44;12.93;;;7.13;;
67904;SDS011;54709;43.614;1.576;2024-03-23T10:27:09;16.77;;;7.25;;
67904;SDS011;54709;43.614;1.576;2024-03-23T10:29:34;7.72;;;3.13;;
67904;SDS011;54709;43.614;1.576;2024-03-23T10:32:12;8.65;;;2.50;;
67904;SDS011;54709;43.614;1.576;2024-03-23T10:34:39;6.68;;;2.15;;
67904;SDS011;54709;43.614;1.576;2024-03-23T10:37:05;8.63;;;2.47;;
67904;SDS011;54709;43.614;1.576;2024-03-23T10:39:34;6.78;;;1.88;;
67904;SDS011;54709;43.614;1.576;2024-03-23T10:42:05;8.27;;;2.13;;
67904;SDS011;54709;43.614;1.576;2024-03-23T10:44:32;5.18;;;1.88;;
67904;SDS011;54709;43.614;1.576;2024-03-23T10:46:58;5.90;;;2.17;;
67904;SDS011;54709;43.614;1.576;2024-03-23T10:49:34;5.53;;;1.88;;
67904;SDS011;54709;43.614;1.576;2024-03-23T10:52:01;5.50;;;1.88;;
67904;SDS011;54709;43.614;1.576;2024-03-23T10:54:28;8.93;;;1.88;;
67904;SDS011;54709;43.614;1.576;2024-03-23T10:57:05;6.00;;;1.80;;
67904;SDS011;54709;43.614;1.576;2024-03-23T10:59:32;5.70;;;2.20;;
67904;SDS011;54709;43.614;1.576;2024-03-23T11:01:59;5.30;;;1.95;;
67904;SDS011;54709;43.614;1.576;2024-03-23T11:06:57;6.43;;;1.42;;
67904;SDS011;54709;43.614;1.576;2024-03-23T11:09:39;5.28;;;1.83;;
67904;SDS011;54709;43.614;1.576;2024-03-23T11:15:05;5.25;;;1.80;;
67904;SDS011;54709;43.614;1.576;2024-03-23T11:17:31;4.95;;;1.50;;
67904;SDS011;54709;43.614;1.576;2024-03-23T11:20:00;5.15;;;1.70;;
67904;SDS011;54709;43.614;1.576;2024-03-23T11:22:45;4.05;;;1.88;;
67904;SDS011;54709;43.614;1.576;2024-03-23T11:25:19;4.72;;;1.63;;
67904;SDS011;54709;43.614;1.576;2024-03-23T11:27:46;5.65;;;1.63;;
67904;SDS011;54709;43.614;1.576;2024-03-23T11:30:19;4.55;;;1.33;;
67904;SDS011;54709;43.614;1.576;2024-03-23T11:32:48;7.43;;;1.73;;
67904;SDS011;54709;43.614;1.576;2024-03-23T11:35:27;6.45;;;1.60;;
67904;SDS011;54709;43.614;1.576;2024-03-23T11:40:28;6.70;;;1.90;;
67904;SDS011;54709;43.614;1.576;2024-03-23T11:43:00;5.25;;;1.70;;
67904;SDS011;54709;43.614;1.576;2024-03-23T11:45:27;4.88;;;1.52;;
67904;SDS011;54709;43.614;1.576;2024-03-23T11:48:04;4.93;;;1.23;;
67904;SDS011;54709;43.614;1.576;2024-03-23T11:50:37;4.45;;;1.60;;
67904;SDS011;54709;43.614;1.576;2024-03-23T11:53:06;4.72;;;1.60;;
67904;SDS011;54709;43.614;1.576;2024-03-23T11:56:05;3.92;;;1.60;;
67904;SDS011;54709;43.614;1.576;2024-03-23T11:58:26;4.68;;;1.55;;
67904;SDS011;54709;43.614;1.576;2024-03-23T12:00:54;4.25;;;1.38;;
67904;SDS011;54709;43.614;1.576;2024-03-23T12:03:24;6.28;;;2.20;;
67904;SDS011;54709;43.614;1.576;2024-03-23T12:05:54;6.63;;;1.52;;
67904;SDS011;54709;43.614;1.576;2024-03-23T12:10:47;4.70;;;1.85;;
67904;SDS011;54709;43.614;1.576;2024-03-23T12:13:14;5.40;;;1.70;;
67904;SDS011;54709;43.614;1.576;2024-03-23T12:15:50;3.17;;;1.23;;
67904;SDS011;54709;43.614;1.576;2024-03-23T12:18:16;3.17;;;1.05;;
67904;SDS011;54709;43.614;1.576;2024-03-23T12:20:41;3.97;;;1.40;;
67904;SDS011;54709;43.614;1.576;2024-03-23T12:25:32;2.22;;;0.95;;
67904;SDS011;54709;43.614;1.576;2024-03-23T12:27:59;4.93;;;1.90;;
67904;SDS011;54709;43.614;1.576;2024-03-23T12:30:24;4.18;;;1.17;;
67904;SDS011;54709;43.614;1.576;2024-03-23T12:32:50;2.97;;;1.05;;
67904;SDS011;54709;43.614;1.576;2024-03-23T12:35:15;8.32;;;3.10;;
67904;SDS011;54709;43.614;1.576;2024-03-23T12:37:40;8.05;;;4.03;;
67904;SDS011;54709;43.614;1.576;2024-03-23T12:40:06;6.45;;;3.03;;
67904;SDS011;54709;43.614;1.576;2024-03-23T12:42:32;4.97;;;2.17;;
67904;SDS011;54709;43.614;1.576;2024-03-23T12:44:58;6.38;;;3.28;;
67904;SDS011;54709;43.614;1.576;2024-03-23T12:47:23;3.38;;;1.20;;
67904;SDS011;54709;43.614;1.576;2024-03-23T12:49:48;3.55;;;0.95;;
67904;SDS011;54709;43.614;1.576;2024-03-23T12:52:14;2.20;;;0.98;;
67904;SDS011;54709;43.614;1.576;2024-03-23T12:54:40;4.28;;;0.98;;
67904;SDS011;54709;43.614;1.576;2024-03-23T12:57:05;3.42;;;1.08;;
67904;SDS011;54709;43.614;1.576;2024-03-23T12:59:31;4.40;;;1.50;;
67904;SDS011;54709;43.614;1.576;2024-03-23T13:01:57;5.38;;;1.40;;
67904;SDS011;54709;43.614;1.576;2024-03-23T13:04:22;5.43;;;1.67;;
67904;SDS011;54709;43.614;1.576;2024-03-23T13:06:48;5.47;;;1.52;;
67904;SDS011;54709;43.614;1.576;2024-03-23T13:09:13;5.10;;;1.30;;
67904;SDS011;54709;43.614;1.576;2024-03-23T13:11:38;5.32;;;1.40;;
67904;SDS011;54709;43.614;1.576;2024-03-23T13:14:04;3.95;;;1.17;;
67904;SDS011;54709;43.614;1.576;2024-03-23T13:16:30;4.20;;;1.02;;
67904;SDS011;54709;43.614;1.576;2024-03-23T13:18:56;3.47;;;1.02;;
67904;SDS011;54709;43.614;1.576;2024-03-23T13:21:21;5.00;;;1.30;;
67904;SDS011;54709;43.614;1.576;2024-03-23T13:23:47;4.63;;;1.30;;
67904;SDS011;54709;43.614;1.576;2024-03-23T13:26:13;5.93;;;1.50;;
67904;SDS011;54709;43.614;1.576;2024-03-23T13:28:39;7.80;;;1.25;;
67904;SDS011;54709;43.614;1.576;2024-03-23T13:31:04;3.88;;;1.13;;
67904;SDS011;54709;43.614;1.576;2024-03-23T13:33:30;4.38;;;1.38;;
67904;SDS011;54709;43.614;1.576;2024-03-23T13:35:58;6.10;;;1.20;;
67904;SDS011;54709;43.614;1.576;2024-03-23T13:38:24;3.60;;;1.30;;
67904;SDS011;54709;43.614;1.576;2024-03-23T13:43:15;7.38;;;1.88;;
67904;SDS011;54709;43.614;1.576;2024-03-23T13:45:40;6.70;;;1.50;;
67904;SDS011;54709;43.614;1.576;2024-03-23T13:48:06;5.55;;;1.13;;
67904;SDS011;54709;43.614;1.576;2024-03-23T13:50:31;5.13;;;1.50;;
67904;SDS011;54709;43.614;1.576;2024-03-23T13:52:56;5.00;;;1.20;;
67904;SDS011;54709;43.614;1.576;2024-03-23T13:55:22;5.32;;;1.20;;
67904;SDS011;54709;43.614;1.576;2024-03-23T13:57:48;5.10;;;1.30;;
67904;SDS011;54709;43.614;1.576;2024-03-23T14:00:15;6.38;;;1.50;;
67904;SDS011;54709;43.614;1.576;2024-03-23T14:02:43;4.88;;;1.35;;
67904;SDS011;54709;43.614;1.576;2024-03-23T14:05:08;4.65;;;1.38;;
67904;SDS011;54709;43.614;1.576;2024-03-23T14:07:34;6.65;;;1.27;;
67904;SDS011;54709;43.614;1.576;2024-03-23T14:10:02;6.35;;;1.30;;
67904;SDS011;54709;43.614;1.576;2024-03-23T14:12:37;5.25;;;1.38;;
67904;SDS011;54709;43.614;1.576;2024-03-23T14:15:06;8.35;;;1.40;;
67904;SDS011;54709;43.614;1.576;2024-03-23T14:17:31;6.63;;;1.40;;
67904;SDS011;54709;43.614;1.576;2024-03-23T14:19:57;6.13;;;1.30;;
67904;SDS011;54709;43.614;1.576;2024-03-23T14:22:26;7.10;;;1.83;;
67904;SDS011;54709;43.614;1.576;2024-03-23T14:24:52;5.53;;;1.00;;
67904;SDS011;54709;43.614;1.576;2024-03-23T14:27:17;6.82;;;1.42;;
67904;SDS011;54709;43.614;1.576;2024-03-23T14:29:45;5.38;;;1.55;;
67904;SDS011;54709;43.614;1.576;2024-03-23T14:32:11;5.53;;;1.48;;
67904;SDS011;54709;43.614;1.576;2024-03-23T14:34:37;6.10;;;1.50;;
67904;SDS011;54709;43.614;1.576;2024-03-23T14:37:02;7.82;;;1.55;;
67904;SDS011;54709;43.614;1.576;2024-03-23T14:39:28;7.30;;;1.48;;
67904;SDS011;54709;43.614;1.576;2024-03-23T14:41:55;7.35;;;1.40;;
67904;SDS011;54709;43.614;1.576;2024-03-23T14:44:21;8.65;;;1.63;;
67904;SDS011;54709;43.614;1.576;2024-03-23T14:46:47;8.15;;;1.70;;
67904;SDS011;54709;43.614;1.576;2024-03-23T14:49:16;9.18;;;1.80;;
67904;SDS011;54709;43.614;1.576;2024-03-23T14:51:41;5.85;;;1.42;;
67904;SDS011;54709;43.614;1.576;2024-03-23T14:54:07;5.97;;;1.55;;
67904;SDS011;54709;43.614;1.576;2024-03-23T14:56:32;7.95;;;1.77;;
67904;SDS011;54709;43.614;1.576;2024-03-23T14:58:59;5.30;;;1.52;;
67904;SDS011;54709;43.614;1.576;2024-03-23T15:01:25;8.55;;;1.60;;
67904;SDS011;54709;43.614;1.576;2024-03-23T15:03:50;9.55;;;1.50;;
67904;SDS011;54709;43.614;1.576;2024-03-23T15:06:18;5.20;;;1.55;;
67904;SDS011;54709;43.614;1.576;2024-03-23T15:08:43;7.57;;;1.75;;
67904;SDS011;54709;43.614;1.576;2024-03-23T15:11:09;7.72;;;1.42;;
67904;SDS011;54709;43.614;1.576;2024-03-23T15:13:38;6.65;;;1.40;;
67904;SDS011;54709;43.614;1.576;2024-03-23T15:16:04;8.50;;;1.90;;
67904;SDS011;54709;43.614;1.576;2024-03-23T15:18:30;7.35;;;1.73;;
67904;SDS011;54709;43.614;1.576;2024-03-23T15:20:56;6.47;;;1.70;;
67904;SDS011;54709;43.614;1.576;2024-03-23T15:23:23;10.30;;;1.98;;
67904;SDS011;54709;43.614;1.576;2024-03-23T15:25:55;5.70;;;1.50;;
67904;SDS011;54709;43.614;1.576;2024-03-23T15:28:24;8.30;;;1.60;;
67904;SDS011;54709;43.614;1.576;2024-03-23T15:30:52;6.10;;;1.50;;
67904;SDS011;54709;43.614;1.576;2024-03-23T15:33:17;12.98;;;1.75;;
67904;SDS011;54709;43.614;1.576;2024-03-23T15:35:43;6.63;;;1.73;;
67904;SDS011;54709;43.614;1.576;2024-03-23T15:38:08;4.25;;;1.45;;
67904;SDS011;54709;43.614;1.576;2024-03-23T15:40:34;10.52;;;1.85;;
67904;SDS011;54709;43.614;1.576;2024-03-23T15:43:00;6.72;;;1.60;;
67904;SDS011;54709;43.614;1.576;2024-03-23T15:45:26;5.40;;;1.70;;
67904;SDS011;54709;43.614;1.576;2024-03-23T15:47:51;9.10;;;1.77;;
67904;SDS011;54709;43.614;1.576;2024-03-23T15:50:17;6.22;;;1.40;;